sensor_id;sensor_type;location;lat;lon;timestamp;P1;durP1;ratioP1;P2;durP2;ratioP2
47155;SDS011;32908;52.344;16.858;2022-07-21T00:00:22;8.73;;;4.13;;
47155;SDS011;32908;52.344;16.858;2022-07-21T00:03:04;9.10;;;4.30;;
47155;SDS011;32908;52.344;16.858;2022-07-21T00:05:32;6.80;;;4.50;;
47155;SDS011;32908;52.344;16.858;2022-07-21T00:08:01;10.00;;;4.45;;
47155;SDS011;32908;52.344;16.858;2022-07-21T00:10:30;9.97;;;4.20;;
47155;SDS011;32908;52.344;16.858;2022-07-21T00:12:59;9.07;;;4.50;;
47155;SDS011;32908;52.344;16.858;2022-07-21T00:15:27;7.03;;;4.03;;
47155;SDS011;32908;52.344;16.858;2022-07-21T00:17:55;9.50;;;4.60;;
47155;SDS011;32908;52.344;16.858;2022-07-21T00:20:25;5.07;;;4.30;;
47155;SDS011;32908;52.344;16.858;2022-07-21T00:22:56;8.03;;;4.40;;
47155;SDS011;32908;52.344;16.858;2022-07-21T00:25:25;7.67;;;4.40;;
47155;SDS011;32908;52.344;16.858;2022-07-21T00:27:53;9.57;;;4.33;;
47155;SDS011;32908;52.344;16.858;2022-07-21T00:30:22;9.60;;;4.50;;
47155;SDS011;32908;52.344;16.858;2022-07-21T00:32:50;10.80;;;4.47;;
47155;SDS011;32908;52.344;16.858;2022-07-21T00:35:18;7.83;;;4.20;;
47155;SDS011;32908;52.344;16.858;2022-07-21T00:37:48;9.67;;;4.70;;
47155;SDS011;32908;52.344;16.858;2022-07-21T00:40:17;6.17;;;4.30;;
47155;SDS011;32908;52.344;16.858;2022-07-21T00:42:45;7.77;;;4.13;;
47155;SDS011;32908;52.344;16.858;2022-07-21T00:45:14;8.90;;;4.10;;
47155;SDS011;32908;52.344;16.858;2022-07-21T00:47:43;11.50;;;4.70;;
47155;SDS011;32908;52.344;16.858;2022-07-21T00:50:13;5.13;;;4.07;;
47155;SDS011;32908;52.344;16.858;2022-07-21T00:52:42;9.23;;;4.50;;
47155;SDS011;32908;52.344;16.858;2022-07-21T00:55:12;7.53;;;4.23;;
47155;SDS011;32908;52.344;16.858;2022-07-21T00:57:42;6.20;;;4.00;;
47155;SDS011;32908;52.344;16.858;2022-07-21T01:00:13;6.00;;;4.00;;
47155;SDS011;32908;52.344;16.858;2022-07-21T01:02:44;6.10;;;4.13;;
47155;SDS011;32908;52.344;16.858;2022-07-21T01:05:13;6.17;;;3.90;;
47155;SDS011;32908;52.344;16.858;2022-07-21T01:07:43;5.00;;;3.83;;
47155;SDS011;32908;52.344;16.858;2022-07-21T01:10:13;8.03;;;3.70;;
47155;SDS011;32908;52.344;16.858;2022-07-21T01:12:43;8.17;;;4.33;;
47155;SDS011;32908;52.344;16.858;2022-07-21T01:15:12;5.17;;;4.00;;
47155;SDS011;32908;52.344;16.858;2022-07-21T01:17:41;7.20;;;3.97;;
47155;SDS011;32908;52.344;16.858;2022-07-21T01:20:12;8.90;;;3.93;;
47155;SDS011;32908;52.344;16.858;2022-07-21T01:22:45;7.03;;;4.00;;
47155;SDS011;32908;52.344;16.858;2022-07-21T01:25:15;4.60;;;3.87;;
47155;SDS011;32908;52.344;16.858;2022-07-21T01:27:44;6.13;;;4.20;;
47155;SDS011;32908;52.344;16.858;2022-07-21T01:30:14;9.13;;;3.90;;
47155;SDS011;32908;52.344;16.858;2022-07-21T01:32:44;5.27;;;3.77;;
47155;SDS011;32908;52.344;16.858;2022-07-21T01:35:13;6.90;;;3.97;;
47155;SDS011;32908;52.344;16.858;2022-07-21T01:37:43;5.13;;;4.10;;
47155;SDS011;32908;52.344;16.858;2022-07-21T01:40:13;7.47;;;4.10;;
47155;SDS011;32908;52.344;16.858;2022-07-21T01:43:00;8.17;;;4.67;;
47155;SDS011;32908;52.344;16.858;2022-07-21T01:45:29;6.80;;;4.23;;
47155;SDS011;32908;52.344;16.858;2022-07-21T01:47:57;6.53;;;4.10;;
47155;SDS011;32908;52.344;16.858;2022-07-21T01:50:25;9.57;;;4.17;;
47155;SDS011;32908;52.344;16.858;2022-07-21T01:52:55;6.60;;;4.43;;
47155;SDS011;32908;52.344;16.858;2022-07-21T01:55:25;6.57;;;4.23;;
47155;SDS011;32908;52.344;16.858;2022-07-21T01:57:55;4.90;;;4.40;;
47155;SDS011;32908;52.344;16.858;2022-07-21T02:00:23;7.03;;;4.37;;
47155;SDS011;32908;52.344;16.858;2022-07-21T02:02:52;6.57;;;4.33;;
47155;SDS011;32908;52.344;16.858;2022-07-21T02:05:21;8.13;;;4.33;;
47155;SDS011;32908;52.344;16.858;2022-07-21T02:07:50;9.43;;;4.47;;
47155;SDS011;32908;52.344;16.858;2022-07-21T02:10:18;6.70;;;4.30;;
47155;SDS011;32908;52.344;16.858;2022-07-21T02:12:46;5.53;;;4.43;;
47155;SDS011;32908;52.344;16.858;2022-07-21T02:15:14;8.20;;;4.47;;
47155;SDS011;32908;52.344;16.858;2022-07-21T02:17:42;7.43;;;4.37;;
47155;SDS011;32908;52.344;16.858;2022-07-21T02:20:12;9.40;;;4.50;;
47155;SDS011;32908;52.344;16.858;2022-07-21T02:22:40;6.07;;;4.60;;
47155;SDS011;32908;52.344;16.858;2022-07-21T02:25:11;8.93;;;4.57;;
47155;SDS011;32908;52.344;16.858;2022-07-21T02:27:41;8.57;;;4.50;;
47155;SDS011;32908;52.344;16.858;2022-07-21T02:30:10;6.47;;;4.30;;
47155;SDS011;32908;52.344;16.858;2022-07-21T02:32:39;7.20;;;4.27;;
47155;SDS011;32908;52.344;16.858;2022-07-21T02:35:08;8.73;;;4.50;;
47155;SDS011;32908;52.344;16.858;2022-07-21T02:37:37;6.63;;;4.20;;
47155;SDS011;32908;52.344;16.858;2022-07-21T02:40:06;5.73;;;4.27;;
47155;SDS011;32908;52.344;16.858;2022-07-21T02:42:35;8.53;;;4.80;;
47155;SDS011;32908;52.344;16.858;2022-07-21T02:45:05;7.97;;;4.50;;
47155;SDS011;32908;52.344;16.858;2022-07-21T02:47:47;9.80;;;4.43;;
47155;SDS011;32908;52.344;16.858;2022-07-21T02:50:16;10.70;;;4.47;;
47155;SDS011;32908;52.344;16.858;2022-07-21T02:52:45;6.17;;;4.47;;
47155;SDS011;32908;52.344;16.858;2022-07-21T02:55:14;12.00;;;4.90;;
47155;SDS011;32908;52.344;16.858;2022-07-21T02:57:42;11.20;;;4.57;;
47155;SDS011;32908;52.344;16.858;2022-07-21T03:00:10;8.93;;;4.63;;
47155;SDS011;32908;52.344;16.858;2022-07-21T03:02:39;5.57;;;3.83;;
47155;SDS011;32908;52.344;16.858;2022-07-21T03:05:08;6.37;;;4.97;;
47155;SDS011;32908;52.344;16.858;2022-07-21T03:07:36;7.23;;;4.50;;
47155;SDS011;32908;52.344;16.858;2022-07-21T03:10:06;6.50;;;4.73;;
47155;SDS011;32908;52.344;16.858;2022-07-21T03:12:35;7.60;;;4.30;;
47155;SDS011;32908;52.344;16.858;2022-07-21T03:15:04;7.47;;;4.60;;
47155;SDS011;32908;52.344;16.858;2022-07-21T03:17:34;8.73;;;4.37;;
47155;SDS011;32908;52.344;16.858;2022-07-21T03:20:03;7.83;;;3.97;;
47155;SDS011;32908;52.344;16.858;2022-07-21T03:22:32;5.53;;;4.13;;
47155;SDS011;32908;52.344;16.858;2022-07-21T03:25:03;5.60;;;4.57;;
47155;SDS011;32908;52.344;16.858;2022-07-21T03:27:32;7.03;;;4.50;;
47155;SDS011;32908;52.344;16.858;2022-07-21T03:30:03;5.87;;;5.00;;
47155;SDS011;32908;52.344;16.858;2022-07-21T03:32:34;5.40;;;4.37;;
47155;SDS011;32908;52.344;16.858;2022-07-21T03:35:03;8.13;;;4.73;;
47155;SDS011;32908;52.344;16.858;2022-07-21T03:37:33;8.93;;;4.83;;
47155;SDS011;32908;52.344;16.858;2022-07-21T03:40:07;8.77;;;4.60;;
47155;SDS011;32908;52.344;16.858;2022-07-21T03:42:38;7.47;;;4.50;;
47155;SDS011;32908;52.344;16.858;2022-07-21T03:45:08;7.37;;;4.47;;
47155;SDS011;32908;52.344;16.858;2022-07-21T03:47:37;8.63;;;4.57;;
47155;SDS011;32908;52.344;16.858;2022-07-21T03:50:06;8.67;;;4.67;;
47155;SDS011;32908;52.344;16.858;2022-07-21T03:52:35;7.13;;;5.00;;
47155;SDS011;32908;52.344;16.858;2022-07-21T03:55:04;9.93;;;4.53;;
47155;SDS011;32908;52.344;16.858;2022-07-21T03:57:36;6.77;;;4.60;;
47155;SDS011;32908;52.344;16.858;2022-07-21T04:00:06;10.63;;;4.50;;
47155;SDS011;32908;52.344;16.858;2022-07-21T04:02:38;7.47;;;4.30;;
47155;SDS011;32908;52.344;16.858;2022-07-21T04:05:09;6.80;;;4.80;;
47155;SDS011;32908;52.344;16.858;2022-07-21T04:07:39;6.37;;;4.40;;
47155;SDS011;32908;52.344;16.858;2022-07-21T04:10:09;7.45;;;4.50;;
47155;SDS011;32908;52.344;16.858;2022-07-21T04:12:38;12.43;;;4.87;;
47155;SDS011;32908;52.344;16.858;2022-07-21T04:15:07;6.70;;;4.37;;
47155;SDS011;32908;52.344;16.858;2022-07-21T04:17:37;10.03;;;4.47;;
47155;SDS011;32908;52.344;16.858;2022-07-21T04:20:08;8.27;;;4.27;;
47155;SDS011;32908;52.344;16.858;2022-07-21T04:22:38;8.80;;;4.57;;
47155;SDS011;32908;52.344;16.858;2022-07-21T04:25:07;9.27;;;4.57;;
47155;SDS011;32908;52.344;16.858;2022-07-21T04:27:36;8.87;;;4.47;;
47155;SDS011;32908;52.344;16.858;2022-07-21T04:30:06;6.70;;;4.53;;
47155;SDS011;32908;52.344;16.858;2022-07-21T04:32:36;6.57;;;4.27;;
47155;SDS011;32908;52.344;16.858;2022-07-21T04:35:06;8.83;;;4.57;;
47155;SDS011;32908;52.344;16.858;2022-07-21T04:37:35;7.33;;;4.23;;
47155;SDS011;32908;52.344;16.858;2022-07-21T04:40:06;6.13;;;4.40;;
47155;SDS011;32908;52.344;16.858;2022-07-21T04:42:36;6.47;;;4.10;;
47155;SDS011;32908;52.344;16.858;2022-07-21T04:45:06;6.97;;;4.17;;
47155;SDS011;32908;52.344;16.858;2022-07-21T04:47:42;6.83;;;4.40;;
47155;SDS011;32908;52.344;16.858;2022-07-21T04:50:10;6.70;;;4.10;;
47155;SDS011;32908;52.344;16.858;2022-07-21T04:52:39;12.83;;;4.60;;
47155;SDS011;32908;52.344;16.858;2022-07-21T04:55:08;7.47;;;4.57;;
47155;SDS011;32908;52.344;16.858;2022-07-21T04:57:38;7.03;;;4.20;;
47155;SDS011;32908;52.344;16.858;2022-07-21T05:00:09;8.93;;;4.63;;
47155;SDS011;32908;52.344;16.858;2022-07-21T05:02:39;14.07;;;4.67;;
47155;SDS011;32908;52.344;16.858;2022-07-21T05:05:08;7.93;;;4.20;;
47155;SDS011;32908;52.344;16.858;2022-07-21T05:07:36;9.93;;;4.50;;
47155;SDS011;32908;52.344;16.858;2022-07-21T05:10:05;12.73;;;4.53;;
47155;SDS011;32908;52.344;16.858;2022-07-21T05:12:35;8.37;;;3.80;;
47155;SDS011;32908;52.344;16.858;2022-07-21T05:15:05;7.83;;;4.03;;
47155;SDS011;32908;52.344;16.858;2022-07-21T05:17:35;10.10;;;4.15;;
47155;SDS011;32908;52.344;16.858;2022-07-21T05:20:05;11.60;;;4.13;;
47155;SDS011;32908;52.344;16.858;2022-07-21T05:22:34;12.37;;;4.80;;
47155;SDS011;32908;52.344;16.858;2022-07-21T05:25:05;9.13;;;4.50;;
47155;SDS011;32908;52.344;16.858;2022-07-21T05:27:34;12.47;;;4.37;;
47155;SDS011;32908;52.344;16.858;2022-07-21T05:30:04;11.17;;;4.53;;
47155;SDS011;32908;52.344;16.858;2022-07-21T05:32:33;9.63;;;4.63;;
47155;SDS011;32908;52.344;16.858;2022-07-21T05:35:03;8.13;;;4.47;;
47155;SDS011;32908;52.344;16.858;2022-07-21T05:37:38;13.97;;;4.63;;
47155;SDS011;32908;52.344;16.858;2022-07-21T05:40:08;6.10;;;4.20;;
47155;SDS011;32908;52.344;16.858;2022-07-21T05:42:38;8.73;;;4.77;;
47155;SDS011;32908;52.344;16.858;2022-07-21T05:45:08;9.53;;;4.40;;
47155;SDS011;32908;52.344;16.858;2022-07-21T05:47:38;10.10;;;4.33;;
47155;SDS011;32908;52.344;16.858;2022-07-21T05:50:08;11.87;;;4.63;;
47155;SDS011;32908;52.344;16.858;2022-07-21T05:52:37;10.67;;;4.20;;
47155;SDS011;32908;52.344;16.858;2022-07-21T05:55:06;6.20;;;3.77;;
47155;SDS011;32908;52.344;16.858;2022-07-21T05:57:35;7.63;;;4.40;;
47155;SDS011;32908;52.344;16.858;2022-07-21T06:00:05;8.23;;;4.37;;
47155;SDS011;32908;52.344;16.858;2022-07-21T06:02:35;8.20;;;4.60;;
47155;SDS011;32908;52.344;16.858;2022-07-21T06:05:03;9.50;;;4.93;;
47155;SDS011;32908;52.344;16.858;2022-07-21T06:07:34;10.73;;;4.40;;
47155;SDS011;32908;52.344;16.858;2022-07-21T06:10:02;7.10;;;4.50;;
47155;SDS011;32908;52.344;16.858;2022-07-21T06:12:32;5.20;;;4.10;;
47155;SDS011;32908;52.344;16.858;2022-07-21T06:15:01;10.67;;;4.80;;
47155;SDS011;32908;52.344;16.858;2022-07-21T06:17:32;6.00;;;4.33;;
47155;SDS011;32908;52.344;16.858;2022-07-21T06:20:07;8.30;;;4.60;;
47155;SDS011;32908;52.344;16.858;2022-07-21T06:22:37;5.37;;;4.03;;
47155;SDS011;32908;52.344;16.858;2022-07-21T06:25:06;10.37;;;4.50;;
47155;SDS011;32908;52.344;16.858;2022-07-21T06:27:35;10.73;;;4.57;;
47155;SDS011;32908;52.344;16.858;2022-07-21T06:30:05;8.13;;;4.40;;
47155;SDS011;32908;52.344;16.858;2022-07-21T06:32:35;5.67;;;4.10;;
47155;SDS011;32908;52.344;16.858;2022-07-21T06:35:04;7.30;;;4.73;;
47155;SDS011;32908;52.344;16.858;2022-07-21T06:37:33;5.07;;;4.53;;
47155;SDS011;32908;52.344;16.858;2022-07-21T06:40:02;5.93;;;4.20;;
47155;SDS011;32908;52.344;16.858;2022-07-21T06:42:32;9.33;;;4.60;;
47155;SDS011;32908;52.344;16.858;2022-07-21T06:45:00;7.33;;;4.93;;
47155;SDS011;32908;52.344;16.858;2022-07-21T06:47:29;6.67;;;4.43;;
47155;SDS011;32908;52.344;16.858;2022-07-21T06:49:57;6.70;;;4.50;;
47155;SDS011;32908;52.344;16.858;2022-07-21T06:52:28;6.47;;;4.47;;
47155;SDS011;32908;52.344;16.858;2022-07-21T06:54:57;7.47;;;4.40;;
47155;SDS011;32908;52.344;16.858;2022-07-21T06:57:25;5.07;;;4.43;;
47155;SDS011;32908;52.344;16.858;2022-07-21T06:59:53;7.23;;;4.60;;
47155;SDS011;32908;52.344;16.858;2022-07-21T07:02:22;6.83;;;4.43;;
47155;SDS011;32908;52.344;16.858;2022-07-21T07:04:50;5.40;;;4.40;;
47155;SDS011;32908;52.344;16.858;2022-07-21T07:07:19;6.37;;;4.20;;
47155;SDS011;32908;52.344;16.858;2022-07-21T07:09:47;7.67;;;4.53;;
47155;SDS011;32908;52.344;16.858;2022-07-21T07:12:15;7.57;;;4.50;;
47155;SDS011;32908;52.344;16.858;2022-07-21T07:14:45;5.50;;;4.70;;
47155;SDS011;32908;52.344;16.858;2022-07-21T07:17:16;10.30;;;4.43;;
47155;SDS011;32908;52.344;16.858;2022-07-21T07:19:45;10.70;;;4.47;;
47155;SDS011;32908;52.344;16.858;2022-07-21T07:22:14;8.23;;;4.67;;
47155;SDS011;32908;52.344;16.858;2022-07-21T07:24:43;5.73;;;4.33;;
47155;SDS011;32908;52.344;16.858;2022-07-21T07:27:11;7.93;;;4.40;;
47155;SDS011;32908;52.344;16.858;2022-07-21T07:29:40;7.77;;;4.50;;
47155;SDS011;32908;52.344;16.858;2022-07-21T07:32:09;10.67;;;5.07;;
47155;SDS011;32908;52.344;16.858;2022-07-21T07:34:37;5.67;;;4.00;;
47155;SDS011;32908;52.344;16.858;2022-07-21T07:37:05;8.93;;;4.17;;
47155;SDS011;32908;52.344;16.858;2022-07-21T07:39:33;6.67;;;4.60;;
47155;SDS011;32908;52.344;16.858;2022-07-21T07:42:02;5.17;;;4.20;;
47155;SDS011;32908;52.344;16.858;2022-07-21T07:44:30;6.27;;;4.13;;
47155;SDS011;32908;52.344;16.858;2022-07-21T07:46:58;6.90;;;4.03;;
47155;SDS011;32908;52.344;16.858;2022-07-21T07:49:28;7.17;;;4.27;;
47155;SDS011;32908;52.344;16.858;2022-07-21T07:51:57;8.75;;;4.40;;
47155;SDS011;32908;52.344;16.858;2022-07-21T07:54:25;9.23;;;4.33;;
47155;SDS011;32908;52.344;16.858;2022-07-21T07:56:54;10.10;;;4.50;;
47155;SDS011;32908;52.344;16.858;2022-07-21T07:59:22;9.95;;;4.05;;
47155;SDS011;32908;52.344;16.858;2022-07-21T08:01:51;5.23;;;4.37;;
47155;SDS011;32908;52.344;16.858;2022-07-21T08:04:19;14.90;;;4.50;;
47155;SDS011;32908;52.344;16.858;2022-07-21T08:06:48;7.60;;;4.57;;
47155;SDS011;32908;52.344;16.858;2022-07-21T08:09:17;6.47;;;4.30;;
47155;SDS011;32908;52.344;16.858;2022-07-21T08:11:45;7.37;;;3.90;;
47155;SDS011;32908;52.344;16.858;2022-07-21T08:14:13;7.63;;;4.43;;
47155;SDS011;32908;52.344;16.858;2022-07-21T08:16:42;7.70;;;4.50;;
47155;SDS011;32908;52.344;16.858;2022-07-21T08:19:10;9.67;;;4.20;;
47155;SDS011;32908;52.344;16.858;2022-07-21T08:21:39;8.00;;;4.57;;
47155;SDS011;32908;52.344;16.858;2022-07-21T08:24:07;5.95;;;4.00;;
47155;SDS011;32908;52.344;16.858;2022-07-21T08:26:35;7.23;;;4.00;;
47155;SDS011;32908;52.344;16.858;2022-07-21T08:29:04;4.40;;;3.60;;
47155;SDS011;32908;52.344;16.858;2022-07-21T08:31:32;4.80;;;3.90;;
47155;SDS011;32908;52.344;16.858;2022-07-21T08:34:01;8.90;;;3.87;;
47155;SDS011;32908;52.344;16.858;2022-07-21T08:36:29;6.90;;;4.20;;
47155;SDS011;32908;52.344;16.858;2022-07-21T08:38:57;6.97;;;4.17;;
47155;SDS011;32908;52.344;16.858;2022-07-21T08:41:25;8.50;;;4.23;;
47155;SDS011;32908;52.344;16.858;2022-07-21T08:43:54;4.47;;;3.73;;
47155;SDS011;32908;52.344;16.858;2022-07-21T08:46:23;9.13;;;4.33;;
47155;SDS011;32908;52.344;16.858;2022-07-21T08:48:51;6.20;;;4.30;;
47155;SDS011;32908;52.344;16.858;2022-07-21T08:51:21;6.37;;;3.80;;
47155;SDS011;32908;52.344;16.858;2022-07-21T08:53:49;7.83;;;4.63;;
47155;SDS011;32908;52.344;16.858;2022-07-21T08:56:17;7.90;;;3.80;;
47155;SDS011;32908;52.344;16.858;2022-07-21T08:58:46;5.27;;;3.80;;
47155;SDS011;32908;52.344;16.858;2022-07-21T09:01:14;8.85;;;3.90;;
47155;SDS011;32908;52.344;16.858;2022-07-21T09:03:43;7.27;;;3.93;;
47155;SDS011;32908;52.344;16.858;2022-07-21T09:06:11;6.20;;;3.93;;
47155;SDS011;32908;52.344;16.858;2022-07-21T09:08:42;4.30;;;3.70;;
47155;SDS011;32908;52.344;16.858;2022-07-21T09:11:13;4.43;;;3.30;;
47155;SDS011;32908;52.344;16.858;2022-07-21T09:13:44;7.40;;;3.60;;
47155;SDS011;32908;52.344;16.858;2022-07-21T09:16:14;6.07;;;3.50;;
47155;SDS011;32908;52.344;16.858;2022-07-21T09:18:49;5.63;;;3.50;;
47155;SDS011;32908;52.344;16.858;2022-07-21T09:21:18;3.53;;;3.10;;
47155;SDS011;32908;52.344;16.858;2022-07-21T09:23:49;3.95;;;3.55;;
47155;SDS011;32908;52.344;16.858;2022-07-21T09:26:17;7.30;;;3.25;;
47155;SDS011;32908;52.344;16.858;2022-07-21T09:28:46;7.67;;;3.80;;
47155;SDS011;32908;52.344;16.858;2022-07-21T09:31:14;6.93;;;3.40;;
47155;SDS011;32908;52.344;16.858;2022-07-21T09:33:44;4.13;;;3.07;;
47155;SDS011;32908;52.344;16.858;2022-07-21T09:36:14;4.50;;;3.50;;
47155;SDS011;32908;52.344;16.858;2022-07-21T09:38:44;6.20;;;3.40;;
47155;SDS011;32908;52.344;16.858;2022-07-21T09:41:20;4.62;;;2.98;;
47155;SDS011;32908;52.344;16.858;2022-07-21T09:43:49;10.33;;;4.10;;
47155;SDS011;32908;52.344;16.858;2022-07-21T09:46:18;8.70;;;3.00;;
47155;SDS011;32908;52.344;16.858;2022-07-21T09:48:48;5.43;;;3.30;;
47155;SDS011;32908;52.344;16.858;2022-07-21T09:54:08;5.67;;;3.60;;
47155;SDS011;32908;52.344;16.858;2022-07-21T09:56:38;10.07;;;3.60;;
47155;SDS011;32908;52.344;16.858;2022-07-21T09:59:08;8.37;;;3.70;;
47155;SDS011;32908;52.344;16.858;2022-07-21T10:01:37;9.93;;;3.43;;
47155;SDS011;32908;52.344;16.858;2022-07-21T10:04:07;5.60;;;3.00;;
47155;SDS011;32908;52.344;16.858;2022-07-21T10:06:36;4.53;;;3.20;;
47155;SDS011;32908;52.344;16.858;2022-07-21T10:09:07;12.03;;;3.30;;
47155;SDS011;32908;52.344;16.858;2022-07-21T10:11:36;4.70;;;2.80;;
47155;SDS011;32908;52.344;16.858;2022-07-21T10:14:08;5.80;;;3.50;;
47155;SDS011;32908;52.344;16.858;2022-07-21T10:16:37;5.43;;;3.17;;
47155;SDS011;32908;52.344;16.858;2022-07-21T10:19:08;5.10;;;2.97;;
47155;SDS011;32908;52.344;16.858;2022-07-21T10:21:42;7.17;;;3.17;;
47155;SDS011;32908;52.344;16.858;2022-07-21T10:24:26;5.60;;;3.37;;
47155;SDS011;32908;52.344;16.858;2022-07-21T10:27:02;10.45;;;3.45;;
47155;SDS011;32908;52.344;16.858;2022-07-21T10:29:50;6.25;;;3.20;;
47155;SDS011;32908;52.344;16.858;2022-07-21T10:32:21;10.20;;;3.63;;
47155;SDS011;32908;52.344;16.858;2022-07-21T10:34:51;5.57;;;3.23;;
47155;SDS011;32908;52.344;16.858;2022-07-21T10:49:10;7.10;;;3.50;;
47155;SDS011;32908;52.344;16.858;2022-07-21T10:55:25;7.40;;;3.40;;
47155;SDS011;32908;52.344;16.858;2022-07-21T10:58:10;4.30;;;2.97;;
47155;SDS011;32908;52.344;16.858;2022-07-21T11:00:46;4.67;;;2.97;;
47155;SDS011;32908;52.344;16.858;2022-07-21T11:03:18;9.33;;;3.50;;
47155;SDS011;32908;52.344;16.858;2022-07-21T11:08:46;6.10;;;3.20;;
47155;SDS011;32908;52.344;16.858;2022-07-21T11:11:16;4.23;;;3.07;;
47155;SDS011;32908;52.344;16.858;2022-07-21T11:13:58;6.13;;;3.30;;
47155;SDS011;32908;52.344;16.858;2022-07-21T11:19:30;5.00;;;3.07;;
47155;SDS011;32908;52.344;16.858;2022-07-21T11:22:05;4.05;;;3.05;;
47155;SDS011;32908;52.344;16.858;2022-07-21T11:24:36;3.80;;;2.90;;
47155;SDS011;32908;52.344;16.858;2022-07-21T11:27:05;7.10;;;2.93;;
47155;SDS011;32908;52.344;16.858;2022-07-21T11:29:36;3.33;;;2.80;;
47155;SDS011;32908;52.344;16.858;2022-07-21T11:32:06;9.13;;;3.10;;
47155;SDS011;32908;52.344;16.858;2022-07-21T11:34:43;7.73;;;3.37;;
47155;SDS011;32908;52.344;16.858;2022-07-21T11:37:14;4.95;;;2.90;;
47155;SDS011;32908;52.344;16.858;2022-07-21T11:39:44;4.47;;;2.93;;
47155;SDS011;32908;52.344;16.858;2022-07-21T11:42:13;6.37;;;3.50;;
47155;SDS011;32908;52.344;16.858;2022-07-21T11:44:42;14.93;;;3.07;;
47155;SDS011;32908;52.344;16.858;2022-07-21T11:47:11;3.83;;;2.70;;
47155;SDS011;32908;52.344;16.858;2022-07-21T11:49:41;4.85;;;2.90;;
47155;SDS011;32908;52.344;16.858;2022-07-21T11:52:11;5.50;;;2.70;;
47155;SDS011;32908;52.344;16.858;2022-07-21T11:54:44;6.30;;;2.80;;
47155;SDS011;32908;52.344;16.858;2022-07-21T11:57:14;7.87;;;3.37;;
47155;SDS011;32908;52.344;16.858;2022-07-21T11:59:44;5.60;;;3.00;;
47155;SDS011;32908;52.344;16.858;2022-07-21T12:02:13;6.60;;;3.30;;
47155;SDS011;32908;52.344;16.858;2022-07-21T12:04:43;4.67;;;2.83;;
47155;SDS011;32908;52.344;16.858;2022-07-21T12:07:15;10.43;;;3.10;;
47155;SDS011;32908;52.344;16.858;2022-07-21T12:09:46;3.30;;;2.57;;
47155;SDS011;32908;52.344;16.858;2022-07-21T12:12:19;4.35;;;2.55;;
47155;SDS011;32908;52.344;16.858;2022-07-21T12:14:56;5.55;;;3.50;;
47155;SDS011;32908;52.344;16.858;2022-07-21T12:17:34;6.10;;;3.20;;
47155;SDS011;32908;52.344;16.858;2022-07-21T12:20:05;6.73;;;2.97;;
47155;SDS011;32908;52.344;16.858;2022-07-21T12:22:35;10.63;;;3.13;;
47155;SDS011;32908;52.344;16.858;2022-07-21T12:25:06;10.65;;;3.30;;
47155;SDS011;32908;52.344;16.858;2022-07-21T12:27:36;7.60;;;3.25;;
47155;SDS011;32908;52.344;16.858;2022-07-21T12:30:07;3.93;;;3.07;;
47155;SDS011;32908;52.344;16.858;2022-07-21T12:32:47;7.05;;;2.85;;
47155;SDS011;32908;52.344;16.858;2022-07-21T12:35:28;6.37;;;3.10;;
47155;SDS011;32908;52.344;16.858;2022-07-21T12:37:58;7.97;;;3.43;;
47155;SDS011;32908;52.344;16.858;2022-07-21T12:40:39;7.00;;;3.13;;
47155;SDS011;32908;52.344;16.858;2022-07-21T12:43:11;6.90;;;3.00;;
47155;SDS011;32908;52.344;16.858;2022-07-21T12:45:45;5.97;;;2.70;;
47155;SDS011;32908;52.344;16.858;2022-07-21T12:48:16;8.27;;;3.17;;
47155;SDS011;32908;52.344;16.858;2022-07-21T12:51:02;6.70;;;3.00;;
47155;SDS011;32908;52.344;16.858;2022-07-21T12:53:37;4.85;;;3.15;;
47155;SDS011;32908;52.344;16.858;2022-07-21T12:56:06;5.13;;;2.80;;
47155;SDS011;32908;52.344;16.858;2022-07-21T12:58:36;7.27;;;2.80;;
47155;SDS011;32908;52.344;16.858;2022-07-21T13:01:05;5.07;;;2.93;;
47155;SDS011;32908;52.344;16.858;2022-07-21T13:03:34;10.87;;;3.30;;
47155;SDS011;32908;52.344;16.858;2022-07-21T13:06:03;8.95;;;3.20;;
47155;SDS011;32908;52.344;16.858;2022-07-21T13:08:33;11.05;;;3.10;;
47155;SDS011;32908;52.344;16.858;2022-07-21T13:11:03;8.13;;;2.80;;
47155;SDS011;32908;52.344;16.858;2022-07-21T13:13:31;11.03;;;3.13;;
47155;SDS011;32908;52.344;16.858;2022-07-21T13:15:59;4.73;;;2.80;;
47155;SDS011;32908;52.344;16.858;2022-07-21T13:18:28;5.40;;;2.70;;
47155;SDS011;32908;52.344;16.858;2022-07-21T13:20:56;6.30;;;2.80;;
47155;SDS011;32908;52.344;16.858;2022-07-21T13:23:25;9.00;;;2.93;;
47155;SDS011;32908;52.344;16.858;2022-07-21T13:25:53;5.90;;;2.60;;
47155;SDS011;32908;52.344;16.858;2022-07-21T13:28:22;9.63;;;3.73;;
47155;SDS011;32908;52.344;16.858;2022-07-21T13:30:51;8.55;;;3.20;;
47155;SDS011;32908;52.344;16.858;2022-07-21T13:33:19;8.50;;;2.80;;
47155;SDS011;32908;52.344;16.858;2022-07-21T13:35:47;5.10;;;2.73;;
47155;SDS011;32908;52.344;16.858;2022-07-21T13:38:16;3.53;;;2.67;;
47155;SDS011;32908;52.344;16.858;2022-07-21T13:40:43;10.37;;;3.07;;
47155;SDS011;32908;52.344;16.858;2022-07-21T13:43:13;4.00;;;3.40;;
47155;SDS011;32908;52.344;16.858;2022-07-21T13:45:42;5.30;;;2.83;;
47155;SDS011;32908;52.344;16.858;2022-07-21T13:48:11;7.40;;;3.13;;
47155;SDS011;32908;52.344;16.858;2022-07-21T13:50:38;7.93;;;2.80;;
47155;SDS011;32908;52.344;16.858;2022-07-21T13:53:07;7.70;;;3.00;;
47155;SDS011;32908;52.344;16.858;2022-07-21T13:55:36;9.70;;;3.20;;
47155;SDS011;32908;52.344;16.858;2022-07-21T13:58:04;5.93;;;2.90;;
47155;SDS011;32908;52.344;16.858;2022-07-21T14:00:33;8.80;;;3.37;;
47155;SDS011;32908;52.344;16.858;2022-07-21T14:03:02;7.00;;;3.10;;
47155;SDS011;32908;52.344;16.858;2022-07-21T14:05:30;3.90;;;2.60;;
47155;SDS011;32908;52.344;16.858;2022-07-21T14:07:59;6.60;;;3.15;;
47155;SDS011;32908;52.344;16.858;2022-07-21T14:10:27;4.23;;;3.13;;
47155;SDS011;32908;52.344;16.858;2022-07-21T14:12:55;5.80;;;2.73;;
47155;SDS011;32908;52.344;16.858;2022-07-21T14:15:24;3.87;;;2.60;;
47155;SDS011;32908;52.344;16.858;2022-07-21T14:17:52;8.20;;;3.30;;
47155;SDS011;32908;52.344;16.858;2022-07-21T14:20:20;7.75;;;3.05;;
47155;SDS011;32908;52.344;16.858;2022-07-21T14:22:49;6.77;;;3.07;;
47155;SDS011;32908;52.344;16.858;2022-07-21T14:25:17;10.37;;;2.97;;
47155;SDS011;32908;52.344;16.858;2022-07-21T14:27:45;5.50;;;2.75;;
47155;SDS011;32908;52.344;16.858;2022-07-21T14:30:15;8.97;;;3.47;;
47155;SDS011;32908;52.344;16.858;2022-07-21T14:32:44;5.35;;;2.80;;
47155;SDS011;32908;52.344;16.858;2022-07-21T14:35:14;8.00;;;2.80;;
47155;SDS011;32908;52.344;16.858;2022-07-21T14:37:43;5.17;;;3.07;;
47155;SDS011;32908;52.344;16.858;2022-07-21T14:40:11;5.47;;;2.47;;
47155;SDS011;32908;52.344;16.858;2022-07-21T14:42:40;5.55;;;3.20;;
47155;SDS011;32908;52.344;16.858;2022-07-21T14:45:09;6.50;;;3.55;;
47155;SDS011;32908;52.344;16.858;2022-07-21T14:47:37;9.77;;;2.83;;
47155;SDS011;32908;52.344;16.858;2022-07-21T14:50:06;20.87;;;3.53;;
47155;SDS011;32908;52.344;16.858;2022-07-21T14:52:35;16.13;;;3.60;;
47155;SDS011;32908;52.344;16.858;2022-07-21T14:55:03;7.00;;;2.90;;
47155;SDS011;32908;52.344;16.858;2022-07-21T14:57:32;8.17;;;2.63;;
47155;SDS011;32908;52.344;16.858;2022-07-21T15:00:02;3.73;;;2.83;;
47155;SDS011;32908;52.344;16.858;2022-07-21T15:02:31;7.33;;;2.77;;
47155;SDS011;32908;52.344;16.858;2022-07-21T15:05:00;4.00;;;2.80;;
47155;SDS011;32908;52.344;16.858;2022-07-21T15:07:29;7.35;;;2.80;;
47155;SDS011;32908;52.344;16.858;2022-07-21T15:09:57;14.35;;;3.35;;
47155;SDS011;32908;52.344;16.858;2022-07-21T15:12:25;9.87;;;2.90;;